createdAt,value
2019-06-10T00:02:10.916Z,102005.05
2019-06-10T00:05:03.758Z,102006.59
2019-06-10T00:07:51.676Z,102003.03
2019-06-10T00:10:42.521Z,101988.73
2019-06-10T00:13:32.800Z,101987.58
2019-06-10T00:16:23.427Z,101986.81
2019-06-10T00:19:12.988Z,101987.37
2019-06-10T00:22:03.553Z,101982.55
2019-06-10T00:24:52.743Z,101984.86
2019-06-10T00:27:42.188Z,101977.90
2019-06-10T00:30:31.335Z,101977.53
2019-06-10T00:33:21.723Z,101966.33
2019-06-10T00:36:13.472Z,101966.03
2019-06-10T00:39:03.439Z,101968.43
2019-06-10T00:41:52.406Z,101970.36
2019-06-10T00:44:41.893Z,101969.57
2019-06-10T00:47:31.247Z,101962.45
2019-06-10T00:50:21.705Z,101959.45
2019-06-10T00:53:13.961Z,101953.25
2019-06-10T00:56:05.197Z,101945.25
2019-06-10T00:58:53.089Z,101941.30
2019-06-10T01:01:42.300Z,101936.95
2019-06-10T01:04:35.287Z,101931.18
2019-06-10T01:07:25.169Z,101917.34
2019-06-10T01:10:16.696Z,101915.20
2019-06-10T01:13:07.030Z,101921.09
2019-06-10T01:15:58.104Z,101912.23
2019-06-10T01:18:50.336Z,101904.29
2019-06-10T01:21:37.914Z,101895.44
2019-06-10T01:24:27.653Z,101891.97
2019-06-10T01:27:17.901Z,101888.88
2019-06-10T01:30:16.666Z,101876.83
2019-06-10T01:32:58.318Z,101877.28
2019-06-10T01:35:47.308Z,101870.73
2019-06-10T01:38:36.160Z,101876.22
2019-06-10T01:41:25.582Z,101883.82
2019-06-10T01:44:16.048Z,101880.85
2019-06-10T01:47:06.684Z,101876.01
2019-06-10T01:49:56.459Z,101875.25
2019-06-10T01:52:45.828Z,101876.69
2019-06-10T01:55:34.688Z,101870.04
2019-06-10T01:58:23.762Z,101873.78
2019-06-10T02:01:23.152Z,101878.78
2019-06-10T02:04:14.161Z,101881.08
2019-06-10T02:07:01.460Z,101879.36
2019-06-10T02:09:51.752Z,101882.16
2019-06-10T02:12:41.588Z,101884.55
2019-06-10T02:15:31.492Z,101880.95
2019-06-10T02:18:22.399Z,101891.38
2019-06-10T02:21:13.031Z,101884.73
2019-06-10T02:24:01.091Z,101880.28
2019-06-10T02:26:51.661Z,101878.45
2019-06-10T02:29:41.321Z,101875.84
2019-06-10T02:32:36.187Z,101865.14
2019-06-10T02:35:30.415Z,101857.15
2019-06-10T02:38:16.826Z,101847.70
2019-06-10T02:41:04.100Z,101838.36
2019-06-10T02:43:53.582Z,101834.41
2019-06-10T02:46:44.102Z,101828.62
2019-06-10T02:49:48.131Z,101832.27
2019-06-10T02:52:32.196Z,101829.20
2019-06-10T02:55:16.359Z,101826.97
2019-06-10T02:58:05.592Z,101820.80
2019-06-10T03:00:54.822Z,101818.56
2019-06-10T03:03:49.396Z,101800.67
2019-06-10T03:06:39.934Z,101802.12
2019-06-10T03:09:30.077Z,101799.52
2019-06-10T03:12:17.595Z,101797.38
2019-06-10T03:15:06.810Z,101789.37
2019-06-10T03:17:55.970Z,101780.03
2019-06-10T03:20:44.691Z,101779.27
2019-06-10T03:23:33.915Z,101774.03
2019-06-10T03:26:25.295Z,101772.77
2019-06-10T03:29:13.378Z,101761.69
2019-06-10T03:32:05.264Z,101760.92
2019-06-10T03:34:54.771Z,101755.23
2019-06-10T03:37:46.110Z,101758.97
2019-06-10T03:40:35.256Z,101751.86
2019-06-10T03:43:26.299Z,101748.86
2019-06-10T03:46:15.478Z,101751.65
2019-06-10T03:49:04.725Z,101749.50
2019-06-10T03:51:54.028Z,101751.44
2019-06-10T03:54:43.864Z,101756.42
2019-06-10T03:57:33.271Z,101752.08
2019-06-10T04:00:24.511Z,101741.39
2019-06-10T04:03:12.859Z,101739.28
2019-06-10T04:06:02.493Z,101736.09
2019-06-10T04:08:52.410Z,101726.66
2019-06-10T04:11:43.897Z,101728.50
2019-06-10T04:14:33.349Z,101725.41
2019-06-10T04:17:23.552Z,101729.45
2019-06-10T04:20:15.442Z,101727.55
2019-06-10T04:23:04.014Z,101721.77
2019-06-10T04:25:53.357Z,101712.73
2019-06-10T04:28:43.208Z,101716.68
2019-06-10T04:31:33.156Z,101708.87
2019-06-10T04:34:25.509Z,101711.96
2019-06-10T04:37:13.427Z,101712.27
2019-06-10T04:40:02.975Z,101709.48
2019-06-10T04:42:52.630Z,101708.92
2019-06-10T04:45:42.945Z,101715.08
2019-06-10T04:48:32.994Z,101707.30
2019-06-10T04:51:23.919Z,101712.89
2019-06-10T04:54:13.348Z,101708.96
2019-06-10T04:57:03.296Z,101709.17
2019-06-10T04:59:52.985Z,101713.48
2019-06-10T05:02:43.114Z,101712.83
2019-06-10T05:05:32.921Z,101710.89
2019-06-10T05:08:23.937Z,101710.44
2019-06-10T05:11:13.002Z,101698.20
2019-06-10T05:14:02.877Z,101695.81
2019-06-10T05:16:54.325Z,101688.48
2019-06-10T05:19:42.970Z,101689.63
2019-06-10T05:22:32.823Z,101688.98
2019-06-10T05:25:22.761Z,101689.19
2019-06-10T05:28:13.298Z,101682.70
2019-06-10T05:31:03.005Z,101684.25
2019-06-10T05:33:53.067Z,101689.38
2019-06-10T05:36:45.170Z,101687.84
2019-06-10T05:39:35.317Z,101683.11
2019-06-10T05:42:26.537Z,101686.79
2019-06-10T05:45:15.887Z,101677.05
2019-06-10T05:48:04.374Z,101682.83
2019-06-10T05:51:02.234Z,101673.94
2019-06-10T05:53:46.406Z,101680.52
2019-06-10T05:56:35.982Z,101674.53
2019-06-10T05:59:25.782Z,101681.06
2019-06-10T06:02:15.630Z,101676.44
2019-06-10T06:05:05.643Z,101675.81
2019-06-10T06:08:04.878Z,101666.02
2019-06-10T06:10:45.871Z,101673.03
2019-06-10T06:13:36.077Z,101669.84
2019-06-10T06:16:25.775Z,101661.59
2019-06-10T06:19:15.064Z,101657.00
2019-06-10T06:22:04.199Z,101658.31
2019-06-10T06:24:53.678Z,101655.42
2019-06-10T06:27:43.142Z,101648.11
2019-06-10T06:30:34.504Z,101650.38
2019-06-10T06:33:23.481Z,101646.28
2019-06-10T06:36:12.788Z,101647.33
2019-06-10T06:39:02.425Z,101646.20
2019-06-10T06:41:52.822Z,101644.95
2019-06-10T06:44:43.376Z,101640.39
2019-06-10T06:47:35.646Z,101631.52
2019-06-10T06:50:25.629Z,101620.97
2019-06-10T06:53:25.690Z,101627.97
2019-06-10T06:56:05.092Z,101619.41
2019-06-10T06:58:55.720Z,101617.77
2019-06-10T07:01:45.117Z,101619.19
2019-06-10T07:04:35.929Z,101620.09
2019-06-10T07:07:26.638Z,101623.58
2019-06-10T07:10:16.340Z,101622.27
2019-06-10T07:13:06.685Z,101621.62
2019-06-10T07:15:55.675Z,101620.55
2019-06-10T07:18:50.195Z,101608.12
2019-06-10T07:21:55.700Z,101610.59
2019-06-10T07:24:26.889Z,101612.21
2019-06-10T07:27:16.245Z,101600.47
2019-06-10T07:30:11.649Z,101603.59
2019-06-10T07:32:56.832Z,101608.38
2019-06-10T07:35:46.045Z,101599.83
2019-06-10T07:38:37.966Z,101602.30
2019-06-10T07:41:26.208Z,101606.09
2019-06-10T07:44:15.073Z,101606.06
2019-06-10T07:47:04.149Z,101602.42
2019-06-10T07:49:53.822Z,101599.69
2019-06-10T07:52:46.596Z,101602.84
2019-06-10T07:55:36.248Z,101604.62
2019-06-10T07:58:26.387Z,101597.62
2019-06-10T08:01:15.966Z,101587.14
2019-06-10T08:04:05.288Z,101581.85
2019-06-10T08:06:54.580Z,101571.11
2019-06-10T08:09:45.743Z,101575.28
2019-06-10T08:12:35.095Z,101561.19
2019-06-10T08:15:24.757Z,101557.95
2019-06-10T08:18:14.042Z,101548.48
2019-06-10T08:21:03.373Z,101564.09
2019-06-10T08:23:54.449Z,101553.42
2019-06-10T08:26:45.574Z,101555.23
2019-06-10T08:29:36.607Z,101556.38
2019-06-10T08:32:26.657Z,101553.49
2019-06-10T08:35:16.729Z,101556.76
2019-06-10T08:38:06.173Z,101546.14
2019-06-10T08:40:55.495Z,101546.63
2019-06-10T08:43:45.607Z,101541.27
2019-06-10T08:46:34.452Z,101534.97
2019-06-10T08:49:24.573Z,101540.70
2019-06-10T08:52:13.867Z,101540.43
2019-06-10T08:55:03.568Z,101531.70
2019-06-10T08:57:54.006Z,101525.88
2019-06-10T09:00:46.256Z,101528.05
2019-06-10T09:03:34.246Z,101525.53
2019-06-10T09:06:23.300Z,101518.03
2019-06-10T09:09:13.092Z,101521.06
2019-06-10T09:12:03.623Z,101519.27
2019-06-10T09:14:53.332Z,101520.89
2019-06-10T09:17:46.401Z,101517.84
2019-06-10T09:20:33.370Z,101521.61
2019-06-10T09:23:25.526Z,101513.30
2019-06-10T09:26:13.390Z,101517.95
2019-06-10T09:29:03.032Z,101521.57
2019-06-10T09:31:55.497Z,101489.12
2019-06-10T09:34:47.159Z,101497.70
2019-06-10T09:37:33.515Z,101494.47
2019-06-10T09:40:24.493Z,101486.74
2019-06-10T09:43:13.044Z,101496.00
2019-06-10T09:46:03.525Z,101491.05
2019-06-10T09:48:55.815Z,101488.48
2019-06-10T09:51:47.205Z,101484.36
2019-06-10T09:54:35.490Z,101486.40
2019-06-10T09:57:25.119Z,101490.52
2019-06-10T10:00:14.888Z,101480.05
2019-06-10T10:03:04.726Z,101478.13
2019-06-10T10:06:06.797Z,101467.44
2019-06-10T10:08:49.372Z,101473.95
2019-06-10T10:11:36.281Z,101466.52
2019-06-10T10:14:25.737Z,101465.64
2019-06-10T10:17:15.177Z,101455.29
2019-06-10T10:20:05.089Z,101456.44
2019-06-10T10:22:55.530Z,101445.38
2019-06-10T10:25:46.252Z,101450.34
2019-06-10T10:28:35.200Z,101443.91
2019-06-10T10:31:24.562Z,101436.77
2019-06-10T10:34:13.699Z,101431.49
2019-06-10T10:37:03.101Z,101422.80
2019-06-10T10:39:55.426Z,101423.91
2019-06-10T10:42:49.817Z,101428.16
2019-06-10T10:45:33.524Z,101420.20
2019-06-10T10:48:22.760Z,101421.89
2019-06-10T10:51:13.314Z,101425.10
2019-06-10T10:54:32.245Z,101419.02
2019-06-10T10:56:59.001Z,101417.60
2019-06-10T10:59:48.027Z,101411.28
2019-06-10T11:02:39.728Z,101405.78
2019-06-10T11:05:35.310Z,101401.06
2019-06-10T11:08:24.495Z,101388.97
2019-06-10T11:11:14.112Z,101380.75
2019-06-10T11:14:03.628Z,101379.23
2019-06-10T11:16:56.872Z,101374.06
2019-06-10T11:19:45.175Z,101373.75
2019-06-10T11:22:34.587Z,101364.63
2019-06-10T11:25:23.760Z,101372.56
2019-06-10T11:28:13.246Z,101371.26
2019-06-10T11:31:03.791Z,101363.43
2019-06-10T11:33:56.152Z,101370.80
2019-06-10T11:36:42.851Z,101380.39
2019-06-10T11:39:33.824Z,101368.62
2019-06-10T11:42:23.436Z,101363.44
2019-06-10T11:45:13.165Z,101349.45
2019-06-10T11:48:02.528Z,101349.58
2019-06-10T11:50:56.518Z,101342.89
2019-06-10T11:53:44.043Z,101328.70
2019-06-10T11:56:33.771Z,101308.91
2019-06-10T11:59:22.574Z,101307.06
2019-06-10T12:02:13.281Z,101292.02
2019-06-10T12:05:04.057Z,101297.69
2019-06-10T12:07:56.322Z,101290.03
2019-06-10T12:10:43.458Z,101293.98
2019-06-10T12:13:34.491Z,101286.79
2019-06-10T12:19:14.594Z,101288.80
2019-06-10T12:22:07.146Z,101295.91
2019-06-10T12:25:21.146Z,101300.88
2019-06-10T12:27:45.303Z,101302.70
2019-06-10T12:30:34.596Z,101302.52
2019-06-10T12:33:25.348Z,101298.22
2019-06-10T12:36:14.037Z,101288.44
2019-06-10T12:39:10.218Z,101288.27
2019-06-10T12:41:57.581Z,101286.89
2019-06-10T12:44:44.971Z,101282.86
2019-06-10T12:47:34.292Z,101278.01
2019-06-10T12:50:23.954Z,101273.22
2019-06-10T12:53:13.260Z,101271.33
2019-06-10T12:56:08.026Z,101276.31
2019-06-10T12:58:54.604Z,101274.91
2019-06-10T13:01:46.746Z,101261.11
2019-06-10T13:04:35.980Z,101255.70
2019-06-10T13:07:25.561Z,101250.95
2019-06-10T13:10:35.276Z,101237.27
2019-06-10T13:13:24.762Z,101231.09
2019-06-10T13:16:14.211Z,101235.75
2019-06-10T13:19:06.099Z,101244.02
2019-06-10T13:21:55.177Z,101236.73
2019-06-10T13:24:43.970Z,101239.30
2019-06-10T13:27:33.043Z,101233.25
2019-06-10T13:30:22.684Z,101227.89
2019-06-10T13:33:14.468Z,101228.56
2019-06-10T13:36:06.410Z,101226.31
2019-06-10T13:38:53.421Z,101229.27
2019-06-10T13:41:43.837Z,101223.42
2019-06-10T13:44:33.862Z,101214.03
2019-06-10T13:47:26.044Z,101222.38
2019-06-10T13:50:14.627Z,101211.98
2019-06-10T13:53:06.346Z,101212.06
2019-06-10T13:56:14.429Z,101215.91
2019-06-10T13:58:46.285Z,101220.27
2019-06-10T14:01:35.909Z,101216.36
2019-06-10T14:04:25.854Z,101203.88
2019-06-10T14:07:17.250Z,101202.48
2019-06-10T14:10:10.870Z,101192.27
2019-06-10T14:12:56.789Z,101202.02
2019-06-10T14:15:46.063Z,101202.63
2019-06-10T14:18:34.902Z,101199.63
2019-06-10T14:21:23.809Z,101196.42
2019-06-10T14:24:15.968Z,101188.25
2019-06-10T14:27:07.169Z,101182.83
2019-06-10T14:29:55.532Z,101177.75
2019-06-10T14:32:44.846Z,101179.35
2019-06-10T14:35:34.070Z,101172.70
2019-06-10T14:38:23.714Z,101171.02
2019-06-10T14:41:14.322Z,101180.86
2019-06-10T14:44:04.524Z,101171.66
2019-06-10T14:46:53.248Z,101167.75
2019-06-10T14:49:42.777Z,101168.47
2019-06-10T14:52:32.535Z,101168.16
2019-06-10T14:55:23.219Z,101162.03
2019-06-10T14:58:13.612Z,101155.91
2019-06-10T15:01:04.726Z,101148.39
2019-06-10T15:03:52.647Z,101152.56
2019-06-10T15:06:43.163Z,101162.20
2019-06-10T15:09:33.480Z,101158.77
2019-06-10T15:12:24.869Z,101144.70
2019-06-10T15:15:14.359Z,101147.97
2019-06-10T15:18:04.245Z,101140.77
2019-06-10T15:20:53.703Z,101137.70
2019-06-10T15:23:43.821Z,101132.22
2019-06-10T15:26:33.157Z,101131.34
2019-06-10T15:29:23.496Z,101122.42
2019-06-10T15:32:24.477Z,101118.63
2019-06-10T15:35:03.384Z,101113.48
2019-06-10T15:37:53.219Z,101112.80
2019-06-10T15:40:43.399Z,101110.05
2019-06-10T15:43:33.209Z,101114.16
2019-06-10T15:46:22.356Z,101108.67
2019-06-10T15:49:14.565Z,101103.88
2019-06-10T15:52:03.286Z,101094.11
2019-06-10T15:54:52.891Z,101088.67
2019-06-10T15:57:45.627Z,101095.03
2019-06-10T16:00:35.025Z,101087.55
2019-06-10T16:03:25.648Z,101083.11
2019-06-10T16:06:16.007Z,101084.31
2019-06-10T16:09:07.549Z,101091.06
2019-06-10T16:11:56.990Z,101095.57
2019-06-10T16:14:45.577Z,101097.48
2019-06-10T16:17:35.415Z,101104.90
2019-06-10T16:20:25.177Z,101101.87
2019-06-10T16:23:16.093Z,101110.31
2019-06-10T16:26:05.664Z,101103.00
2019-06-10T16:28:54.770Z,101111.58
2019-06-10T16:31:44.242Z,101121.89
2019-06-10T16:34:33.040Z,101108.39
2019-06-10T16:37:24.070Z,101114.05
2019-06-10T16:40:12.598Z,101113.22
2019-06-10T16:43:03.751Z,101113.70
2019-06-10T16:45:53.198Z,101119.52
2019-06-10T16:48:43.584Z,101122.75
2019-06-10T16:51:32.707Z,101125.98
2019-06-10T16:54:24.242Z,101123.93
2019-06-10T16:57:12.658Z,101138.05
2019-06-10T17:00:07.004Z,101143.27
2019-06-10T17:02:53.146Z,101137.75
2019-06-10T17:05:42.679Z,101142.12
2019-06-10T17:08:33.497Z,101128.38
2019-06-10T17:11:24.100Z,101130.00
2019-06-10T17:14:12.682Z,101129.61
2019-06-10T17:17:03.545Z,101122.38
2019-06-10T17:19:53.043Z,101111.23
2019-06-10T17:22:43.425Z,101102.62
2019-06-10T17:25:33.774Z,101102.06
2019-06-10T17:28:28.505Z,101102.52
2019-06-10T17:31:17.780Z,101108.75
2019-06-10T17:34:06.944Z,101102.18
2019-06-10T17:36:55.579Z,101090.70
2019-06-10T17:39:44.074Z,101090.47
2019-06-10T17:42:38.156Z,101107.47
2019-06-10T17:45:26.194Z,101114.41
2019-06-10T17:48:15.127Z,101117.89
2019-06-10T17:51:04.001Z,101116.16
2019-06-10T17:53:53.083Z,101110.45
2019-06-10T17:56:42.746Z,101108.72
2019-06-10T17:59:34.080Z,101097.20
2019-06-10T18:02:24.635Z,101089.65
2019-06-10T18:05:13.758Z,101085.80
2019-06-10T18:08:03.173Z,101093.71
2019-06-10T18:10:53.616Z,101095.70
2019-06-10T18:13:43.059Z,101109.91
2019-06-10T18:16:35.911Z,101099.78
2019-06-10T18:19:26.250Z,101096.80
2019-06-10T18:22:15.722Z,101092.11
2019-06-10T18:25:05.296Z,101092.57
2019-06-10T18:27:54.722Z,101088.86
2019-06-10T18:30:43.615Z,101089.83
2019-06-10T18:33:35.997Z,101081.75
2019-06-10T18:36:24.461Z,101089.12
2019-06-10T18:39:14.581Z,101101.44
2019-06-10T18:42:04.153Z,101112.44
2019-06-10T18:44:53.753Z,101119.66
2019-06-10T18:47:43.472Z,101111.25
2019-06-10T18:50:33.397Z,101108.09
2019-06-10T18:53:23.752Z,101107.66
2019-06-10T18:56:13.259Z,101101.82
2019-06-10T18:59:15.638Z,101101.02
2019-06-10T19:01:53.636Z,101102.34
2019-06-10T19:04:43.576Z,101104.11
2019-06-10T19:07:34.761Z,101099.27
2019-06-10T19:10:24.032Z,101104.11
2019-06-10T19:13:13.563Z,101114.58
2019-06-10T19:16:03.126Z,101113.66
2019-06-10T19:18:53.008Z,101115.94
2019-06-10T19:21:43.919Z,101114.50
2019-06-10T19:24:36.305Z,101116.27
2019-06-10T19:27:28.224Z,101115.34
2019-06-10T19:30:23.123Z,101122.90
2019-06-10T19:33:12.738Z,101127.41
2019-06-10T19:36:04.865Z,101133.61
2019-06-10T19:38:55.619Z,101130.81
2019-06-10T19:41:47.405Z,101130.73
2019-06-10T19:44:37.046Z,101134.24
2019-06-10T19:47:26.433Z,101132.80
2019-06-10T19:50:16.038Z,101125.41
2019-06-10T19:53:04.561Z,101136.08
2019-06-10T19:55:53.658Z,101134.64
2019-06-10T19:58:43.505Z,101144.44
2019-06-10T20:01:35.186Z,101150.11
2019-06-10T20:04:23.673Z,101155.48
2019-06-10T20:07:12.925Z,101155.40
2019-06-10T20:10:02.934Z,101164.16
2019-06-10T20:12:53.642Z,101170.02
2019-06-10T20:15:44.979Z,101175.21
2019-06-10T20:18:33.370Z,101185.50
2019-06-10T20:21:22.828Z,101184.77
2019-06-10T20:24:13.637Z,101175.30
2019-06-10T20:27:03.996Z,101186.44
2019-06-10T20:30:04.523Z,101181.77
2019-06-10T20:32:51.859Z,101176.71
2019-06-10T20:35:40.387Z,101172.91
2019-06-10T20:38:32.540Z,101164.30
2019-06-10T20:41:21.199Z,101164.58
2019-06-10T20:44:12.981Z,101158.71
2019-06-10T20:47:01.585Z,101149.11
2019-06-10T20:49:56.016Z,101138.02
2019-06-10T20:52:45.985Z,101137.08
2019-06-10T20:55:42.442Z,101130.56
2019-06-10T20:58:24.594Z,101129.59
2019-06-10T21:01:13.988Z,101130.73
2019-06-10T21:04:03.928Z,101137.42
2019-06-10T21:06:53.973Z,101144.10
2019-06-10T21:09:44.417Z,101164.58
2019-06-10T21:12:33.689Z,101171.26
2019-06-10T21:15:23.367Z,101172.00
2019-06-10T21:18:13.189Z,101169.55
2019-06-10T21:21:01.934Z,101161.18
2019-06-10T21:23:51.788Z,101159.23
2019-06-10T21:26:43.870Z,101159.37
2019-06-10T21:29:32.295Z,101157.78
2019-06-10T21:32:22.047Z,101152.63
2019-06-10T21:35:12.077Z,101153.36
2019-06-10T21:38:01.054Z,101157.19
2019-06-10T21:40:49.816Z,101164.23
2019-06-10T21:43:41.469Z,101163.11
2019-06-10T21:46:28.823Z,101165.10
2019-06-10T21:49:17.611Z,101163.50
2019-06-10T21:52:06.843Z,101167.45
2019-06-10T21:54:56.248Z,101165.86
2019-06-10T21:57:46.827Z,101157.02
2019-06-10T22:00:55.590Z,101153.55
2019-06-10T22:03:35.987Z,101149.75
2019-06-10T22:06:25.510Z,101141.87
2019-06-10T22:09:14.380Z,101140.78
2019-06-10T22:12:03.470Z,101141.89
2019-06-10T22:14:52.500Z,101134.38
2019-06-10T22:17:46.245Z,101128.73
2019-06-10T22:20:35.662Z,101129.34
2019-06-10T22:23:24.662Z,101130.45
2019-06-10T22:26:13.857Z,101138.71
2019-06-10T22:29:03.253Z,101133.55
2019-06-10T22:31:55.057Z,101135.04
2019-06-10T22:34:42.962Z,101133.81
2019-06-10T22:37:32.985Z,101137.77
2019-06-10T22:40:22.979Z,101123.97
2019-06-10T22:43:13.042Z,101118.69
2019-06-10T22:46:04.031Z,101113.91
2019-06-10T22:48:53.391Z,101106.03
2019-06-10T22:51:43.259Z,101107.99
2019-06-10T22:54:32.439Z,101108.25
2019-06-10T22:57:22.236Z,101109.23
2019-06-10T23:00:13.096Z,101100.86
2019-06-10T23:03:02.870Z,101100.14
2019-06-10T23:05:54.341Z,101094.48
2019-06-10T23:08:44.109Z,101097.31
2019-06-10T23:11:33.860Z,101098.80
2019-06-10T23:14:23.374Z,101099.42
2019-06-10T23:17:14.190Z,101100.53
2019-06-10T23:20:03.310Z,101105.20
2019-06-10T23:22:55.508Z,101120.59
2019-06-10T23:25:43.265Z,101126.27
2019-06-10T23:28:32.870Z,101126.86
2019-06-10T23:31:23.068Z,101134.73
2019-06-10T23:34:19.946Z,101129.44
2019-06-10T23:37:13.787Z,101137.19
2019-06-10T23:40:04.665Z,101126.11
2019-06-10T23:42:57.056Z,101132.37
2019-06-10T23:45:51.297Z,101121.80
2019-06-10T23:48:45.220Z,101119.72
2019-06-10T23:51:34.504Z,101102.73
2019-06-10T23:54:27.835Z,101107.29
2019-06-10T23:57:22.317Z,101102.13
